createdAt,value
2022-08-30T00:01:16.132Z,4.18
2022-08-30T00:04:17.059Z,4.35
2022-08-30T00:07:18.130Z,3.47
2022-08-30T00:10:20.129Z,3.45
2022-08-30T00:13:22.133Z,3.72
2022-08-30T00:16:23.280Z,3.30
2022-08-30T00:19:17.137Z,3.33
2022-08-30T00:22:19.076Z,3.05
2022-08-30T00:25:21.124Z,3.38
2022-08-30T00:28:22.094Z,2.83
2022-08-30T00:31:23.119Z,2.63
2022-08-30T00:34:24.116Z,2.72
2022-08-30T00:37:25.131Z,2.97
2022-08-30T00:40:27.684Z,3.90
2022-08-30T00:43:41.212Z,2.80
2022-08-30T00:46:42.217Z,3.10
2022-08-30T00:49:44.145Z,3.47
2022-08-30T00:52:45.108Z,3.90
2022-08-30T00:55:46.152Z,4.13
2022-08-30T00:58:54.093Z,3.72
2022-08-30T01:01:55.195Z,3.60
2022-08-30T01:05:02.245Z,3.42
2022-08-30T01:08:03.176Z,3.80
2022-08-30T01:11:06.153Z,3.53
2022-08-30T01:14:08.138Z,3.15
2022-08-30T01:17:11.105Z,3.55
2022-08-30T01:20:18.271Z,3.42
2022-08-30T01:23:25.102Z,3.45
2022-08-30T01:26:27.224Z,3.60
2022-08-30T01:29:34.171Z,4.00
2022-08-30T01:32:38.130Z,3.22
2022-08-30T01:35:39.164Z,3.45
2022-08-30T01:38:50.192Z,3.38
2022-08-30T01:41:51.132Z,3.30
2022-08-30T01:44:52.203Z,3.53
2022-08-30T01:47:54.116Z,3.45
2022-08-30T01:50:55.112Z,3.15
2022-08-30T01:53:51.196Z,3.00
2022-08-30T01:56:52.223Z,3.45
2022-08-30T01:59:57.200Z,3.30
2022-08-30T02:03:05.190Z,4.28
2022-08-30T02:06:06.153Z,3.40
2022-08-30T02:09:07.134Z,3.25
2022-08-30T02:12:08.197Z,3.67
2022-08-30T02:15:09.211Z,3.53
2022-08-30T02:18:10.298Z,3.50
2022-08-30T02:21:11.210Z,3.67
2022-08-30T02:24:12.219Z,2.90
2022-08-30T02:27:13.214Z,3.00
2022-08-30T02:30:14.188Z,2.85
2022-08-30T02:33:15.231Z,3.83
2022-08-30T02:36:16.188Z,3.55
2022-08-30T02:39:17.165Z,2.67
2022-08-30T02:42:18.208Z,3.40
2022-08-30T02:45:19.237Z,2.92
2022-08-30T02:48:20.158Z,3.13
2022-08-30T02:51:23.164Z,3.00
2022-08-30T02:54:26.166Z,3.28
2022-08-30T02:57:27.307Z,3.38
2022-08-30T03:00:32.207Z,3.35
2022-08-30T03:03:33.350Z,3.45
2022-08-30T03:06:34.229Z,3.35
2022-08-30T03:09:35.188Z,3.15
2022-08-30T03:12:36.217Z,2.95
2022-08-30T03:15:37.167Z,3.65
2022-08-30T03:18:40.248Z,3.42
2022-08-30T03:21:41.225Z,2.85
2022-08-30T03:24:42.562Z,3.15
2022-08-30T03:27:43.171Z,3.03
2022-08-30T03:30:44.212Z,2.67
2022-08-30T03:33:47.239Z,2.85
2022-08-30T03:36:48.213Z,2.33
2022-08-30T03:39:49.232Z,2.33
2022-08-30T03:42:50.179Z,2.20
2022-08-30T03:45:51.273Z,2.85
2022-08-30T03:48:52.247Z,2.15
2022-08-30T03:51:53.277Z,4.55
2022-08-30T03:54:54.341Z,2.55
2022-08-30T03:57:55.277Z,2.90
2022-08-30T04:00:56.236Z,2.60
2022-08-30T04:03:57.199Z,2.65
2022-08-30T04:06:58.210Z,2.50
2022-08-30T04:09:59.250Z,2.33
2022-08-30T04:13:01.345Z,2.85
2022-08-30T04:16:03.333Z,3.00
2022-08-30T04:19:04.244Z,2.50
2022-08-30T04:22:05.276Z,3.03
2022-08-30T04:25:06.219Z,2.45
2022-08-30T04:28:07.240Z,1.80
2022-08-30T04:31:01.267Z,1.73
2022-08-30T04:34:02.204Z,1.90
2022-08-30T04:37:03.228Z,2.35
2022-08-30T04:40:09.266Z,2.70
2022-08-30T04:43:10.268Z,2.90
2022-08-30T04:46:11.269Z,2.83
2022-08-30T04:49:12.232Z,2.60
2022-08-30T04:52:15.289Z,2.42
2022-08-30T04:55:20.253Z,2.50
2022-08-30T04:58:21.268Z,2.08
2022-08-30T05:01:30.481Z,1.58
2022-08-30T05:04:31.282Z,1.55
2022-08-30T05:07:32.247Z,1.30
2022-08-30T05:10:34.272Z,1.63
2022-08-30T05:13:36.962Z,1.42
2022-08-30T05:16:38.367Z,1.80
2022-08-30T05:19:40.260Z,1.42
2022-08-30T05:22:41.305Z,1.90
2022-08-30T05:25:46.278Z,1.75
2022-08-30T05:28:49.011Z,1.55
2022-08-30T05:31:50.321Z,1.60
2022-08-30T05:34:51.356Z,1.52
2022-08-30T05:37:52.237Z,1.60
2022-08-30T05:40:58.239Z,1.50
2022-08-30T05:44:01.416Z,1.70
2022-08-30T05:46:56.316Z,1.17
2022-08-30T05:49:57.252Z,1.80
2022-08-30T05:52:58.252Z,1.30
2022-08-30T05:55:59.313Z,1.70
2022-08-30T05:59:01.272Z,1.60
2022-08-30T06:02:02.505Z,1.50
2022-08-30T06:05:03.313Z,3.88
2022-08-30T06:08:04.313Z,1.40
2022-08-30T06:11:05.235Z,1.40
2022-08-30T06:14:07.353Z,1.50
2022-08-30T06:17:08.260Z,1.10
2022-08-30T06:20:09.335Z,1.17
2022-08-30T06:23:10.317Z,1.42
2022-08-30T06:26:17.432Z,1.00
2022-08-30T06:29:18.342Z,1.38
2022-08-30T06:32:19.284Z,1.25
2022-08-30T06:35:21.336Z,1.27
2022-08-30T06:38:22.297Z,1.20
2022-08-30T06:41:26.315Z,1.58
2022-08-30T06:44:27.474Z,1.35
2022-08-30T06:47:31.285Z,1.30
2022-08-30T06:50:32.440Z,1.27
2022-08-30T06:53:33.364Z,1.17
2022-08-30T06:56:36.145Z,2.45
2022-08-30T06:59:39.355Z,1.90
2022-08-30T07:02:40.349Z,1.50
2022-08-30T07:05:41.354Z,0.90
2022-08-30T07:08:42.288Z,1.30
2022-08-30T07:11:51.400Z,1.10
2022-08-30T07:14:53.306Z,1.08
2022-08-30T07:18:12.324Z,1.30
2022-08-30T07:21:42.485Z,1.05
2022-08-30T07:24:43.320Z,1.20
2022-08-30T07:27:45.360Z,1.10
2022-08-30T07:30:47.334Z,0.90
2022-08-30T07:33:48.323Z,0.95
2022-08-30T07:36:50.375Z,1.02
2022-08-30T07:39:51.390Z,0.90
2022-08-30T07:42:52.477Z,0.90
2022-08-30T07:45:53.383Z,0.80
2022-08-30T07:48:54.351Z,0.80
2022-08-30T07:51:56.389Z,0.80
2022-08-30T07:54:57.349Z,1.00
2022-08-30T07:57:58.411Z,1.00
2022-08-30T08:00:59.680Z,0.60
2022-08-30T08:04:00.402Z,0.77
2022-08-30T08:06:54.339Z,0.68
2022-08-30T08:09:55.386Z,0.63
2022-08-30T08:12:49.394Z,0.90
2022-08-30T08:15:52.382Z,1.10
2022-08-30T08:18:53.432Z,0.50
2022-08-30T08:22:15.385Z,1.35
2022-08-30T08:25:15.414Z,0.77
2022-08-30T08:28:16.380Z,1.33
2022-08-30T08:31:17.476Z,0.70
2022-08-30T08:34:12.414Z,0.80
2022-08-30T08:37:13.405Z,1.00
2022-08-30T08:40:14.394Z,0.70
2022-08-30T08:43:26.427Z,0.80
2022-08-30T08:46:59.344Z,0.70
2022-08-30T08:50:04.523Z,1.33
2022-08-30T08:53:46.486Z,0.98
2022-08-30T08:56:47.382Z,0.70
2022-08-30T08:59:48.438Z,1.08
2022-08-30T09:03:01.381Z,0.80
2022-08-30T09:06:04.380Z,0.82
2022-08-30T09:09:05.524Z,1.40
2022-08-30T09:12:06.441Z,0.70
2022-08-30T09:15:12.458Z,1.00
2022-08-30T09:18:32.339Z,1.10
2022-08-30T09:21:56.581Z,0.93
2022-08-30T09:25:26.607Z,0.80
2022-08-30T09:28:56.787Z,0.82
2022-08-30T09:32:37.294Z,0.73
2022-08-30T09:36:02.815Z,0.50
2022-08-30T09:39:28.517Z,0.80
2022-08-30T09:42:39.436Z,0.60
2022-08-30T09:45:53.650Z,0.70
2022-08-30T09:49:04.579Z,1.02
2022-08-30T09:52:31.455Z,0.70
2022-08-30T09:56:21.942Z,1.00
2022-08-30T09:59:52.506Z,0.50
2022-08-30T10:02:59.576Z,1.15
2022-08-30T10:06:37.566Z,1.75
2022-08-30T10:09:41.494Z,0.60
2022-08-30T10:13:06.858Z,0.85
2022-08-30T10:16:28.528Z,0.98
2022-08-30T10:19:52.516Z,1.10
2022-08-30T10:23:25.606Z,0.70
2022-08-30T10:26:42.717Z,1.10
2022-08-30T10:29:51.275Z,0.73
2022-08-30T10:33:21.480Z,0.80
2022-08-30T10:36:32.531Z,0.82
2022-08-30T10:39:57.521Z,1.00
2022-08-30T10:43:09.884Z,0.80
2022-08-30T10:47:23.431Z,0.80
2022-08-30T10:50:51.485Z,0.73
2022-08-30T10:58:27.552Z,0.80
2022-08-30T11:01:51.975Z,0.70
2022-08-30T11:08:43.489Z,0.73
2022-08-30T11:12:08.608Z,1.20
2022-08-30T11:15:10.530Z,0.75
2022-08-30T11:18:23.594Z,1.05
2022-08-30T11:22:07.332Z,0.85
2022-08-30T11:25:10.129Z,1.23
2022-08-30T11:31:51.564Z,1.10
2022-08-30T11:34:58.547Z,0.82
2022-08-30T11:38:06.781Z,1.10
2022-08-30T11:41:39.551Z,1.30
2022-08-30T11:45:30.727Z,1.00
2022-08-30T11:48:57.902Z,0.73
2022-08-30T11:52:28.506Z,1.10
2022-08-30T12:02:04.677Z,1.25
2022-08-30T12:05:07.637Z,1.00
2022-08-30T12:08:11.531Z,1.00
2022-08-30T12:11:21.599Z,1.20
2022-08-30T12:14:47.551Z,1.17
2022-08-30T12:18:30.568Z,1.05
2022-08-30T12:21:43.898Z,1.25
2022-08-30T12:24:54.526Z,1.20
2022-08-30T12:27:56.676Z,0.90
2022-08-30T12:30:59.552Z,1.00
2022-08-30T12:34:08.587Z,0.98
2022-08-30T12:37:32.523Z,0.98
2022-08-30T12:40:38.709Z,1.10
2022-08-30T12:43:50.578Z,1.33
2022-08-30T12:46:53.151Z,0.80
2022-08-30T12:49:58.581Z,1.10
2022-08-30T12:53:13.573Z,1.67
2022-08-30T12:56:21.230Z,1.20
2022-08-30T13:00:02.353Z,1.17
2022-08-30T13:03:25.949Z,1.27
2022-08-30T13:06:56.570Z,0.90
2022-08-30T13:09:57.658Z,0.98
2022-08-30T13:13:15.696Z,0.98
2022-08-30T13:20:39.508Z,0.90
2022-08-30T13:24:09.625Z,1.20
2022-08-30T13:27:18.608Z,0.98
2022-08-30T13:30:25.590Z,2.08
2022-08-30T13:33:27.713Z,1.37
2022-08-30T13:36:33.646Z,0.90
2022-08-30T13:39:52.923Z,1.35
2022-08-30T13:43:00.631Z,1.10
2022-08-30T13:49:43.765Z,1.42
2022-08-30T14:07:25.960Z,1.27
2022-08-30T14:10:32.841Z,1.00
2022-08-30T14:16:48.734Z,1.13
2022-08-30T14:19:50.029Z,1.08
2022-08-30T14:22:50.782Z,1.23
2022-08-30T14:25:52.633Z,1.30
2022-08-30T14:28:53.689Z,0.95
2022-08-30T14:31:55.686Z,1.05
2022-08-30T14:34:59.653Z,1.20
2022-08-30T14:38:25.718Z,4.40
2022-08-30T14:41:37.182Z,1.60
2022-08-30T14:44:54.763Z,1.40
2022-08-30T14:47:54.847Z,1.40
2022-08-30T14:50:55.662Z,1.15
2022-08-30T14:53:56.625Z,0.90
2022-08-30T14:57:10.274Z,0.98
2022-08-30T15:03:27.756Z,1.23
2022-08-30T15:06:28.798Z,1.10
2022-08-30T15:09:34.637Z,1.10
2022-08-30T15:12:36.036Z,1.05
2022-08-30T15:15:44.688Z,1.10
2022-08-30T15:18:54.705Z,0.90
2022-08-30T15:21:59.771Z,1.15
2022-08-30T15:25:09.687Z,0.63
2022-08-30T15:31:43.759Z,1.20
2022-08-30T15:34:55.864Z,1.27
2022-08-30T15:38:03.844Z,1.05
2022-08-30T15:41:08.670Z,1.15
2022-08-30T15:44:11.759Z,1.08
2022-08-30T15:47:15.966Z,1.20
2022-08-30T15:50:27.961Z,0.80
2022-08-30T15:53:28.725Z,1.27
2022-08-30T15:56:36.065Z,1.05
2022-08-30T15:59:41.902Z,1.30
2022-08-30T16:02:42.822Z,1.30
2022-08-30T16:05:45.718Z,1.05
2022-08-30T16:08:46.733Z,0.90
2022-08-30T16:11:47.713Z,1.40
2022-08-30T16:14:48.747Z,1.02
2022-08-30T16:17:49.692Z,1.75
2022-08-30T16:20:50.742Z,1.00
2022-08-30T16:23:53.698Z,1.10
2022-08-30T16:26:55.688Z,1.20
2022-08-30T16:29:56.844Z,1.10
2022-08-30T16:32:57.705Z,1.00
2022-08-30T16:35:58.864Z,1.33
2022-08-30T16:39:01.994Z,0.70
2022-08-30T16:42:03.253Z,0.90
2022-08-30T16:45:10.532Z,0.73
2022-08-30T16:48:11.848Z,1.02
2022-08-30T16:51:13.785Z,1.42
2022-08-30T16:54:39.762Z,1.20
2022-08-30T17:01:17.351Z,1.30
2022-08-30T17:04:12.992Z,1.08
2022-08-30T17:20:07.954Z,0.90
2022-08-30T17:23:08.772Z,1.10
2022-08-30T17:26:26.750Z,1.67
2022-08-30T17:29:28.811Z,1.08
2022-08-30T17:32:37.905Z,1.05
2022-08-30T17:35:41.876Z,1.05
2022-08-30T17:38:45.178Z,1.20
2022-08-30T17:41:50.606Z,1.27
2022-08-30T17:44:52.755Z,0.73
2022-08-30T17:51:10.803Z,1.20
2022-08-30T17:54:12.811Z,1.17
2022-08-30T17:57:14.777Z,1.50
2022-08-30T18:00:19.788Z,1.45
2022-08-30T18:03:21.838Z,1.27
2022-08-30T18:06:23.835Z,1.00
2022-08-30T18:09:30.545Z,1.30
2022-08-30T18:12:34.053Z,1.10
2022-08-30T18:15:34.789Z,1.27
2022-08-30T18:19:02.872Z,1.50
2022-08-30T18:25:05.891Z,1.52
2022-08-30T18:28:27.936Z,1.13
2022-08-30T18:31:56.830Z,1.60
2022-08-30T18:34:57.899Z,1.27
2022-08-30T18:37:58.837Z,1.48
2022-08-30T18:41:00.824Z,1.40
2022-08-30T18:44:26.226Z,2.55
2022-08-30T18:47:14.869Z,1.25
2022-08-30T18:50:15.994Z,1.38
2022-08-30T18:53:29.178Z,1.60
2022-08-30T18:56:33.121Z,1.88
2022-08-30T18:59:35.564Z,1.40
2022-08-30T19:02:37.830Z,1.73
2022-08-30T19:05:41.872Z,1.25
2022-08-30T19:08:42.812Z,1.73
2022-08-30T19:11:46.785Z,1.42
2022-08-30T19:14:48.040Z,1.38
2022-08-30T19:17:48.871Z,1.20
2022-08-30T19:20:49.977Z,1.55
2022-08-30T19:23:54.975Z,1.30
2022-08-30T19:26:55.810Z,1.38
2022-08-30T19:29:56.972Z,1.80
2022-08-30T19:32:57.830Z,1.05
2022-08-30T19:35:58.837Z,1.23
2022-08-30T19:38:59.838Z,1.50
2022-08-30T19:42:00.913Z,1.10
2022-08-30T19:45:05.883Z,1.38
2022-08-30T19:48:06.854Z,1.20
2022-08-30T19:51:07.907Z,1.30
2022-08-30T19:54:08.889Z,1.88
2022-08-30T19:57:09.887Z,1.58
2022-08-30T20:00:11.252Z,1.42
2022-08-30T20:03:12.987Z,1.20
2022-08-30T20:06:18.307Z,1.77
2022-08-30T20:09:19.856Z,1.50
2022-08-30T20:12:21.879Z,1.85
2022-08-30T20:15:25.111Z,2.42
2022-08-30T20:18:30.441Z,1.85
2022-08-30T20:21:33.945Z,1.67
2022-08-30T20:27:35.948Z,1.85
2022-08-30T20:30:36.824Z,2.30
2022-08-30T20:33:38.861Z,1.70
2022-08-30T20:36:39.904Z,1.75
2022-08-30T20:39:41.057Z,1.60
2022-08-30T20:42:43.052Z,1.67
2022-08-30T20:45:48.952Z,2.22
2022-08-30T20:48:44.050Z,1.65
2022-08-30T20:51:44.870Z,1.65
2022-08-30T20:54:45.909Z,2.15
2022-08-30T20:57:46.950Z,1.33
2022-08-30T21:00:47.921Z,1.70
2022-08-30T21:03:49.889Z,1.92
2022-08-30T21:06:51.274Z,1.67
2022-08-30T21:09:51.892Z,1.50
2022-08-30T21:12:53.431Z,1.60
2022-08-30T21:15:54.784Z,2.13
2022-08-30T21:18:55.884Z,1.88
2022-08-30T21:21:56.887Z,1.70
2022-08-30T21:24:57.877Z,1.73
2022-08-30T21:27:59.901Z,1.58
2022-08-30T21:31:01.889Z,1.65
2022-08-30T21:34:04.876Z,1.60
2022-08-30T21:37:06.060Z,1.60
2022-08-30T21:40:07.039Z,1.88
2022-08-30T21:43:07.965Z,1.58
2022-08-30T21:46:09.121Z,1.33
2022-08-30T21:49:11.984Z,2.20
2022-08-30T21:52:12.938Z,1.42
2022-08-30T21:55:13.907Z,1.60
2022-08-30T21:58:14.887Z,1.70
2022-08-30T22:01:29.944Z,1.33
2022-08-30T22:04:31.973Z,1.83
2022-08-30T22:07:32.962Z,1.60
2022-08-30T22:10:33.909Z,1.88
2022-08-30T22:13:34.946Z,1.30
2022-08-30T22:16:37.066Z,1.80
2022-08-30T22:19:38.918Z,1.63
2022-08-30T22:22:39.915Z,1.73
2022-08-30T22:25:40.993Z,1.73
2022-08-30T22:28:41.944Z,1.60
2022-08-30T22:31:43.158Z,1.30
2022-08-30T22:34:44.936Z,1.60
2022-08-30T22:37:47.773Z,1.58
2022-08-30T22:41:06.978Z,1.70
2022-08-30T22:44:07.995Z,1.85
2022-08-30T22:47:08.934Z,1.48
2022-08-30T22:50:09.985Z,1.70
2022-08-30T22:53:11.946Z,1.70
2022-08-30T22:56:13.021Z,1.55
2022-08-30T22:59:14.016Z,1.73
2022-08-30T23:02:15.199Z,2.10
2022-08-30T23:05:15.980Z,1.52
2022-08-30T23:08:18.974Z,1.60
2022-08-30T23:11:19.935Z,1.52
2022-08-30T23:14:21.026Z,1.60
2022-08-30T23:17:21.947Z,1.60
2022-08-30T23:20:22.970Z,2.10
2022-08-30T23:23:43.002Z,1.90
2022-08-30T23:27:03.278Z,1.83
2022-08-30T23:30:23.168Z,1.80
2022-08-30T23:33:41.968Z,1.90
2022-08-30T23:37:01.153Z,2.13
2022-08-30T23:40:20.022Z,2.13
2022-08-30T23:43:41.172Z,3.08
2022-08-30T23:46:59.972Z,2.30
2022-08-30T23:50:18.975Z,2.00
2022-08-30T23:53:37.974Z,2.65
2022-08-30T23:57:02.065Z,2.45
